KFMH/FMH METAR and TAF weather

Enter ICAO airport designator
Station Type Date Time Source
KFMH METAR 2019/07/15 19:55 UTC NOAA

KFMH 151955Z AUTO 23011KT 10SM CLR 26/17 A2998 RMK AO2


Station Type Date Time Source
KFMH Decoded METAR 2019/07/15 19:55 UTC NOAA

Otis Air National Guard Base, MA, United States (KFMH) 41-39N 070-31W
Jul 15, 2019 - 03:55 PM EDT / 2019.07.15 1955 UTC
Wind: from the SW (230 degrees) at 13 MPH (11 KT):0
Visibility: 10 mile(s):0
Sky conditions: clear
Temperature: 78 F (26 C)
Dew Point: 62 F (17 C)
Relative Humidity: 57%
Pressure (altimeter): 29.98 in. Hg (1015 hPa)
ob: KFMH 151955Z AUTO 23011KT 10SM CLR 26/17 A2998 RMK AO2
cycle: 20

Station Type Date Time Source
KFMH TAF 2019/07/15 18:24 UTC NOAA

TAF KFMH 151720Z 1518/1618 28009KT P6SM FEW200
FM152100 25008KT P6SM FEW250
FM160800 28003KT P6SM FEW250
FM161200 32003KT P6SM FEW250
FM161500 25006KT P6SM FEW200

Example: see airport list